createdAt,value
2022-08-05T00:00:00.627Z,985.2925
2022-08-05T00:01:01.020Z,985.4077
2022-08-05T00:02:07.726Z,985.38
2022-08-05T00:03:00.825Z,985.3881
2022-08-05T00:04:00.949Z,985.4919
2022-08-05T00:05:01.125Z,985.4551
2022-08-05T00:06:20.157Z,985.4413
2022-08-05T00:07:00.426Z,985.3462
2022-08-05T00:08:01.558Z,985.2972
2022-08-05T00:09:01.007Z,985.3123
2022-08-05T00:10:00.849Z,985.3037
2022-08-05T00:11:01.430Z,985.3123
2022-08-05T00:12:01.193Z,985.4637
2022-08-05T00:13:00.318Z,985.2899
2022-08-05T00:14:00.463Z,985.3548
2022-08-05T00:15:54.093Z,985.3703
2022-08-05T00:16:00.763Z,985.3474
2022-08-05T00:17:02.059Z,985.4944
2022-08-05T00:18:02.538Z,985.263
2022-08-05T00:19:01.217Z,985.2271
2022-08-05T00:20:02.786Z,985.2716
2022-08-05T00:21:00.517Z,985.4316
2022-08-05T00:22:00.672Z,985.4178
2022-08-05T00:23:13.038Z,985.426
2022-08-05T00:24:10.043Z,985.2608
2022-08-05T00:25:01.255Z,985.2262
2022-08-05T00:26:00.262Z,985.3706
2022-08-05T00:27:00.509Z,985.2193
2022-08-05T00:28:00.567Z,985.278
2022-08-05T00:29:00.717Z,985.3
2022-08-05T00:30:03.213Z,985.3
2022-08-05T00:31:04.227Z,985.5118
2022-08-05T00:32:12.398Z,985.3074
2022-08-05T00:33:00.320Z,985.278
2022-08-05T00:34:56.865Z,985.1674
2022-08-05T00:35:06.962Z,985.2119
2022-08-05T00:36:16.595Z,985.278
2022-08-05T00:37:12.942Z,985.2119
2022-08-05T00:38:01.074Z,985.2413
2022-08-05T00:39:01.301Z,985.1899
2022-08-05T00:40:00.505Z,985.2275
2022-08-05T00:41:00.550Z,985.4755
2022-08-05T00:42:00.694Z,985.3956
2022-08-05T00:43:00.835Z,985.1631
2022-08-05T00:44:00.994Z,985.3956
2022-08-05T00:45:01.155Z,985.1549
2022-08-05T00:46:00.330Z,985.1912
2022-08-05T00:47:04.257Z,985.243
2022-08-05T00:48:05.306Z,985.3103
2022-08-05T00:49:00.743Z,985.1942
2022-08-05T00:50:00.902Z,985.2235
2022-08-05T00:51:01.062Z,985.2097
2022-08-05T00:52:01.218Z,985.1661
2022-08-05T00:53:00.343Z,985.2391
2022-08-05T00:54:02.504Z,985.1954
2022-08-05T00:55:00.640Z,985.1441
2022-08-05T00:56:00.797Z,985.1799
2022-08-05T00:57:00.976Z,985.361
2022-08-05T00:58:01.099Z,985.2822
2022-08-05T00:59:01.257Z,985.1216
2022-08-05T01:00:00.415Z,985.3129
2022-08-05T01:01:00.701Z,985.2973
2022-08-05T01:02:00.734Z,985.1441
2022-08-05T01:03:00.866Z,985.3129
2022-08-05T01:04:01.302Z,985.2321
2022-08-05T01:05:01.199Z,985.1298
2022-08-05T01:06:00.333Z,985.1535
2022-08-05T01:07:00.505Z,985.2334
2022-08-05T01:08:40.259Z,985.2403
2022-08-05T01:09:00.831Z,985.1678
2022-08-05T01:10:01.002Z,985.1678
2022-08-05T01:11:01.150Z,985.2489
2022-08-05T01:12:04.763Z,985.1397
2022-08-05T01:13:05.276Z,985.3158
2022-08-05T01:14:00.601Z,985.1708
2022-08-05T01:15:04.037Z,985.3188
2022-08-05T01:16:00.902Z,985.2238
2022-08-05T01:17:01.104Z,985.1358
2022-08-05T01:18:01.226Z,985.2894
2022-08-05T01:19:00.876Z,985.2238
2022-08-05T01:20:02.903Z,985.1065
2022-08-05T01:21:00.712Z,985.3906
2022-08-05T01:22:00.890Z,985.2238
2022-08-05T01:23:01.010Z,985.3652
2022-08-05T01:24:01.172Z,985.4239
2022-08-05T01:25:00.305Z,985.4589
2022-08-05T01:26:00.452Z,985.3129
2022-08-05T01:27:00.622Z,985.3129
2022-08-05T01:28:00.757Z,985.299
2022-08-05T01:29:03.460Z,985.379
2022-08-05T01:30:01.061Z,985.4532
2022-08-05T01:31:01.207Z,985.3175
2022-08-05T01:32:00.385Z,985.3975
2022-08-05T01:33:00.515Z,985.2825
2022-08-05T01:34:00.665Z,985.4419
2022-08-05T01:35:00.801Z,985.4721
2022-08-05T01:36:00.964Z,985.3841
2022-08-05T01:37:01.141Z,985.2985
2022-08-05T01:38:01.255Z,985.3547
2022-08-05T01:39:01.309Z,985.4216
2022-08-05T01:40:00.601Z,985.4216
2022-08-05T01:41:01.625Z,985.2626
2022-08-05T01:42:00.904Z,985.3841
2022-08-05T01:43:01.045Z,985.3841
2022-08-05T01:44:01.192Z,985.3975
2022-08-05T01:45:03.601Z,985.4419
2022-08-05T01:46:07.331Z,985.276
2022-08-05T01:47:00.678Z,985.2549
2022-08-05T01:48:00.788Z,985.2406
2022-08-05T01:49:00.938Z,985.27
2022-08-05T01:50:01.667Z,985.488
2022-08-05T01:51:04.650Z,985.2842
2022-08-05T01:52:01.101Z,985.3417
2022-08-05T01:53:00.546Z,985.4759
2022-08-05T01:54:02.154Z,985.3667
2022-08-05T01:55:00.870Z,985.4995
2022-08-05T01:56:01.013Z,985.434
2022-08-05T01:58:10.980Z,985.4128
2022-08-05T01:58:13.784Z,985.4702
2022-08-05T01:59:00.467Z,985.5904
2022-08-05T02:00:00.617Z,985.4817
2022-08-05T02:01:00.770Z,985.4606
2022-08-05T02:02:00.982Z,985.4455
2022-08-05T02:03:03.705Z,985.5904
2022-08-05T02:04:01.224Z,985.5904
2022-08-05T02:05:00.373Z,985.5904
2022-08-05T02:06:01.012Z,985.4243
2022-08-05T02:07:00.671Z,985.5054
2022-08-05T02:08:01.214Z,985.4105
2022-08-05T02:09:00.979Z,985.2957
2022-08-05T02:10:01.110Z,985.4704
2022-08-05T02:11:00.270Z,985.3691
2022-08-05T02:12:00.415Z,985.5169
2022-08-05T02:13:00.569Z,985.4514
2022-08-05T02:14:00.741Z,985.4151
2022-08-05T02:15:00.889Z,985.4668
2022-08-05T02:16:01.036Z,985.5698
2022-08-05T02:17:01.178Z,985.425
2022-08-05T02:18:27.625Z,985.4388
2022-08-05T02:19:00.495Z,985.5198
2022-08-05T02:20:00.667Z,985.4262
2022-08-05T02:21:00.797Z,985.4723
2022-08-05T02:22:00.951Z,985.4878
2022-08-05T02:23:01.102Z,985.5003
2022-08-05T02:24:00.263Z,985.3831
2022-08-05T02:25:00.465Z,985.421
2022-08-05T02:26:00.562Z,985.3706
2022-08-05T02:27:00.706Z,985.161
2022-08-05T02:28:00.862Z,985.1847
2022-08-05T02:29:01.023Z,985.1485
2022-08-05T02:30:01.217Z,985.1416
2022-08-05T02:31:00.308Z,985.1485
2022-08-05T02:32:00.469Z,985.2743
2022-08-05T02:33:00.678Z,985.2605
2022-08-05T02:34:00.790Z,985.2019
2022-08-05T02:35:02.150Z,985.2243
2022-08-05T02:36:01.473Z,985.2983
2022-08-05T02:37:01.247Z,985.2828
2022-08-05T02:38:00.432Z,985.4062
2022-08-05T02:39:00.572Z,985.2841
2022-08-05T02:40:00.697Z,985.1528
2022-08-05T02:41:00.865Z,985.488
2022-08-05T02:42:01.594Z,985.263
2022-08-05T02:43:01.145Z,985.2044
2022-08-05T02:44:06.184Z,985.2268
2022-08-05T02:45:00.456Z,985.488
2022-08-05T02:46:01.117Z,985.4156
2022-08-05T02:47:01.190Z,985.2729
2022-08-05T02:48:11.402Z,985.3445
2022-08-05T02:49:01.084Z,985.2952
2022-08-05T02:50:01.240Z,985.1949
2022-08-05T02:51:00.383Z,985.4353
2022-08-05T02:52:02.708Z,985.2254
2022-08-05T02:53:00.681Z,985.2186
2022-08-05T02:54:03.440Z,985.2926
2022-08-05T02:55:01.817Z,985.308
2022-08-05T02:56:02.108Z,985.3166
2022-08-05T02:57:00.300Z,985.3667
2022-08-05T02:58:10.568Z,985.3809
2022-08-05T02:59:00.585Z,985.4102
2022-08-05T03:00:01.212Z,985.3093
2022-08-05T03:01:01.718Z,985.2646
2022-08-05T03:02:01.134Z,985.3728
2022-08-05T03:03:01.220Z,985.4394
2022-08-05T03:04:03.232Z,985.498
2022-08-05T03:05:00.524Z,985.396
2022-08-05T03:06:57.252Z,985.3448
2022-08-05T03:07:00.836Z,985.3183
2022-08-05T03:08:08.532Z,985.4858
2022-08-05T03:09:01.110Z,985.2335
2022-08-05T03:10:00.274Z,985.2851
2022-08-05T03:11:53.272Z,985.2193
2022-08-05T03:12:00.567Z,985.2193
2022-08-05T03:14:03.533Z,985.1763
2022-08-05T03:15:01.028Z,985.401
2022-08-05T03:16:01.165Z,985.2657
2022-08-05T03:17:00.318Z,985.1487
2022-08-05T03:18:00.466Z,985.1775
2022-08-05T03:19:00.634Z,985.1861
2022-08-05T03:20:00.763Z,985.1719
2022-08-05T03:21:00.901Z,985.1139
2022-08-05T03:22:01.060Z,985.1431
2022-08-05T03:23:01.220Z,985.1655
2022-08-05T03:24:00.481Z,985.1152
2022-08-05T03:25:11.573Z,985.0653
2022-08-05T03:26:05.045Z,985.1319
2022-08-05T03:27:00.843Z,985.3931
2022-08-05T03:28:00.986Z,985.1977
2022-08-05T03:29:01.152Z,985.1392
2022-08-05T03:30:08.164Z,985.1685
2022-08-05T03:31:00.447Z,985.3009
2022-08-05T03:32:00.778Z,985.1779
2022-08-05T03:33:00.742Z,985.171
2022-08-05T03:34:00.932Z,985.2157
2022-08-05T03:35:01.055Z,985.1228
2022-08-05T03:36:01.196Z,985.1228
2022-08-05T03:37:00.356Z,985.1963
2022-08-05T03:38:00.512Z,985.1675
2022-08-05T03:39:00.734Z,985.0506
2022-08-05T03:40:01.512Z,985.4213
2022-08-05T03:41:00.963Z,985.1911
2022-08-05T03:42:01.124Z,985.256
2022-08-05T03:43:01.394Z,985.1911
2022-08-05T03:44:11.336Z,985.3792
2022-08-05T03:45:01.874Z,985.2509
2022-08-05T03:46:00.725Z,985.2745
2022-08-05T03:47:00.880Z,985.1559
2022-08-05T03:48:01.043Z,985.1546
2022-08-05T03:49:01.832Z,985.0893
2022-08-05T03:50:00.348Z,985.2646
2022-08-05T03:52:35.082Z,985.3431
2022-08-05T03:52:50.386Z,985.1477
2022-08-05T03:55:34.662Z,985.1911
2022-08-05T03:55:51.688Z,985.1185
2022-08-05T03:56:04.250Z,985.2199
2022-08-05T03:56:11.015Z,985.5382
2022-08-05T03:57:00.446Z,985.2199
2022-08-05T03:58:00.565Z,985.1185
2022-08-05T03:59:00.732Z,985.1267
2022-08-05T04:00:01.649Z,985.1645
2022-08-05T04:01:01.097Z,985.3821
2022-08-05T04:02:01.254Z,985.216
2022-08-05T04:03:00.337Z,985.2521
2022-08-05T04:04:09.367Z,985.4388
2022-08-05T04:05:00.652Z,985.4388
2022-08-05T04:06:00.805Z,985.4032
2022-08-05T04:07:00.939Z,985.4393
2022-08-05T04:08:01.079Z,985.3821
2022-08-05T04:09:01.235Z,985.5574
2022-08-05T04:10:01.786Z,985.4405
2022-08-05T04:11:00.580Z,985.535
2022-08-05T04:12:00.698Z,985.4766
2022-08-05T04:13:03.415Z,985.4405
2022-08-05T04:14:00.997Z,985.3049
2022-08-05T04:15:01.156Z,985.3118
2022-08-05T04:16:02.889Z,985.5574
2022-08-05T04:17:00.587Z,985.7034
2022-08-05T04:18:00.589Z,985.5574
2022-08-05T04:19:00.742Z,985.6827
2022-08-05T04:20:00.892Z,985.4779
2022-08-05T04:21:01.084Z,985.4697
2022-08-05T04:22:08.641Z,985.4839
2022-08-05T04:23:00.348Z,985.4405
2022-08-05T04:24:06.744Z,985.4543
2022-08-05T04:25:00.766Z,985.606
2022-08-05T04:26:01.106Z,985.591
2022-08-05T04:27:00.968Z,985.2492
2022-08-05T04:28:05.594Z,985.3804
2022-08-05T04:29:01.260Z,985.4599
2022-08-05T04:30:03.823Z,985.2049
2022-08-05T04:31:01.020Z,985.2393
2022-08-05T04:32:00.740Z,985.4468
2022-08-05T04:33:00.873Z,985.3509
2022-08-05T04:34:31.697Z,985.3428
2022-08-05T04:35:01.169Z,985.344
2022-08-05T04:36:15.956Z,985.3931
2022-08-05T04:37:00.672Z,985.3931
2022-08-05T04:38:06.426Z,985.458
2022-08-05T04:39:00.815Z,985.2171
2022-08-05T04:40:00.941Z,985.1724
2022-08-05T04:41:01.087Z,985.2463
2022-08-05T04:42:01.876Z,985.3833
2022-08-05T04:43:00.392Z,985.1668
2022-08-05T04:44:00.543Z,985.1724
2022-08-05T04:45:00.926Z,985.295
2022-08-05T04:46:00.838Z,985.4303
2022-08-05T04:47:09.943Z,985.4083
2022-08-05T04:48:01.125Z,985.4595
2022-08-05T04:49:00.284Z,985.5765
2022-08-05T04:50:01.402Z,985.6935
2022-08-05T04:51:02.862Z,985.5834
2022-08-05T04:52:00.806Z,985.6195
2022-08-05T04:53:01.075Z,985.663
2022-08-05T04:54:01.317Z,985.9039
2022-08-05T04:55:13.844Z,985.8901
2022-08-05T04:56:33.568Z,985.919
2022-08-05T04:57:00.508Z,986.1603
2022-08-05T04:58:00.636Z,986.2411
2022-08-05T04:59:00.776Z,986.5555
2022-08-05T05:00:00.938Z,986.8534
2022-08-05T05:01:01.146Z,986.9258
2022-08-05T05:02:35.330Z,986.7795
2022-08-05T05:03:03.985Z,986.5683
2022-08-05T05:04:00.535Z,986.3135
2022-08-05T05:05:02.314Z,986.2656
2022-08-05T05:06:39.292Z,986.1446
2022-08-05T05:07:01.004Z,986.1935
2022-08-05T05:08:02.050Z,986.2354
2022-08-05T05:09:00.683Z,986.5906
2022-08-05T05:10:02.186Z,986.5906
2022-08-05T05:11:00.558Z,986.6784
2022-08-05T05:12:03.081Z,986.8472
2022-08-05T05:13:01.905Z,986.6199
2022-08-05T05:14:01.020Z,986.6707
2022-08-05T05:15:03.802Z,986.6827
2022-08-05T05:16:05.921Z,986.7039
2022-08-05T05:17:00.574Z,986.5867
2022-08-05T05:18:00.969Z,986.5008
2022-08-05T05:19:18.860Z,986.4476
2022-08-05T05:20:00.970Z,986.633
2022-08-05T05:21:01.133Z,986.6315
2022-08-05T05:22:00.275Z,986.9974
2022-08-05T05:23:04.187Z,986.9611
2022-08-05T05:24:04.231Z,986.601
2022-08-05T05:25:01.278Z,986.5138
2022-08-05T05:26:00.898Z,986.7576
2022-08-05T05:27:01.029Z,986.9587
2022-08-05T05:28:01.184Z,986.7732
2022-08-05T05:29:00.352Z,986.7257
2022-08-05T05:30:04.272Z,986.8239
2022-08-05T05:31:00.646Z,986.9669
2022-08-05T05:32:00.845Z,986.6482
2022-08-05T05:33:03.838Z,986.6305
2022-08-05T05:34:02.478Z,986.8261
2022-08-05T05:35:01.268Z,986.8238
2022-08-05T05:36:00.399Z,986.9093
2022-08-05T05:37:00.556Z,986.9654
2022-08-05T05:38:02.197Z,987.1616
2022-08-05T05:39:03.841Z,987.101
2022-08-05T05:40:01.063Z,986.9444
2022-08-05T05:41:01.193Z,987.0079
2022-08-05T05:42:00.356Z,986.8586
2022-08-05T05:43:00.505Z,987.0174
2022-08-05T05:44:00.874Z,986.981
2022-08-05T05:45:00.831Z,987.0085
2022-08-05T05:46:00.948Z,987.0593
2022-08-05T05:47:02.263Z,986.8967
2022-08-05T05:48:05.522Z,987.0133
2022-08-05T05:49:00.395Z,986.9989
2022-08-05T05:50:01.395Z,987.0218
2022-08-05T05:51:15.216Z,987.0887
2022-08-05T05:52:00.855Z,987.0144
2022-08-05T05:53:01.008Z,987.0508
2022-08-05T05:54:01.151Z,987.1321
2022-08-05T05:55:00.326Z,987.0593
2022-08-05T05:56:03.201Z,987.1027
2022-08-05T05:57:00.603Z,987.1461
2022-08-05T05:58:01.992Z,987.2767
2022-08-05T05:59:03.188Z,987.1847
2022-08-05T06:00:01.058Z,987.0838
2022-08-05T06:01:12.407Z,987.198
2022-08-05T06:02:00.364Z,986.8796
2022-08-05T06:03:00.527Z,987.1202
2022-08-05T06:04:03.679Z,987.0233
2022-08-05T06:05:00.837Z,987.0136
2022-08-05T06:06:00.997Z,987.1371
2022-08-05T06:07:01.395Z,986.9012
2022-08-05T06:08:01.759Z,987.2101
2022-08-05T06:09:00.420Z,986.9575
2022-08-05T06:10:04.314Z,987.0154
2022-08-05T06:11:00.740Z,987.2101
2022-08-05T06:12:02.691Z,986.962
2022-08-05T06:13:01.030Z,987.0331
2022-08-05T06:14:01.180Z,986.6625
2022-08-05T06:15:00.322Z,986.8936
2022-08-05T06:16:29.707Z,986.9481
2022-08-05T06:17:01.985Z,987.158
2022-08-05T06:18:00.797Z,987.0163
2022-08-05T06:19:05.504Z,986.9926
2022-08-05T06:20:01.090Z,986.9549
2022-08-05T06:21:01.235Z,986.976
2022-08-05T06:22:00.407Z,986.826
2022-08-05T06:23:00.529Z,986.9648
2022-08-05T06:24:00.679Z,986.8976
2022-08-05T06:25:00.837Z,986.8964
2022-08-05T06:26:13.559Z,987.012
2022-08-05T06:27:01.154Z,987.0707
2022-08-05T06:28:10.965Z,986.9502
2022-08-05T06:29:03.299Z,986.8926
2022-08-05T06:30:04.297Z,987.0293
2022-08-05T06:31:00.719Z,987.1886
2022-08-05T06:32:00.889Z,987.0536
2022-08-05T06:33:01.018Z,987.1102
2022-08-05T06:34:06.792Z,987.2832
2022-08-05T06:35:00.312Z,987.0828
2022-08-05T06:36:07.829Z,987.058
2022-08-05T06:37:00.646Z,987.0935
2022-08-05T06:38:04.235Z,987.1264
2022-08-05T06:39:00.970Z,987.139
2022-08-05T06:40:02.464Z,987.1815
2022-08-05T06:41:01.227Z,987.1856
2022-08-05T06:42:00.397Z,987.3517
2022-08-05T06:43:00.529Z,987.2877
2022-08-05T06:44:00.872Z,987.2163
2022-08-05T06:45:06.463Z,987.3958
2022-08-05T06:46:04.037Z,987.2903
2022-08-05T06:47:02.409Z,987.4778
2022-08-05T06:48:44.248Z,987.4167
2022-08-05T06:49:03.234Z,987.4901
2022-08-05T06:50:05.092Z,987.586
2022-08-05T06:51:00.747Z,987.8079
2022-08-05T06:52:00.925Z,987.6834
2022-08-05T06:53:11.299Z,987.8344
2022-08-05T06:54:01.864Z,987.5392
2022-08-05T06:55:00.373Z,987.6292
2022-08-05T06:56:00.508Z,987.6588
2022-08-05T06:57:13.820Z,987.4951
2022-08-05T06:58:20.229Z,987.48
2022-08-05T06:59:00.972Z,987.6069
2022-08-05T07:00:01.125Z,987.6542
2022-08-05T07:02:00.399Z,987.7075
2022-08-05T07:03:00.550Z,987.6708
2022-08-05T07:04:00.676Z,987.575
2022-08-05T07:05:00.835Z,987.6663
2022-08-05T07:06:00.985Z,987.5434
2022-08-05T07:07:01.139Z,987.6913
2022-08-05T07:08:00.293Z,987.7139
2022-08-05T07:09:04.149Z,987.7139
2022-08-05T07:10:03.406Z,987.8111
2022-08-05T07:11:00.719Z,987.8333
2022-08-05T07:12:00.913Z,987.7601
2022-08-05T07:13:01.023Z,987.7009
2022-08-05T07:14:01.193Z,987.7742
2022-08-05T07:15:00.323Z,987.6322
2022-08-05T07:16:04.766Z,987.4887
2022-08-05T07:17:58.777Z,987.4258
2022-08-05T07:18:08.924Z,987.2159
2022-08-05T07:19:00.949Z,987.2526
2022-08-05T07:20:33.459Z,987.3615
2022-08-05T07:21:04.830Z,987.4704
2022-08-05T07:22:02.660Z,987.5593
2022-08-05T07:23:00.547Z,987.627
2022-08-05T07:24:01.230Z,987.627
2022-08-05T07:25:23.091Z,987.5974
2022-08-05T07:26:01.030Z,987.5985
2022-08-05T07:27:01.173Z,987.6729
2022-08-05T07:28:04.097Z,987.6069
2022-08-05T07:29:00.498Z,987.6447
2022-08-05T07:30:27.641Z,987.6532
2022-08-05T07:31:00.787Z,987.5855
2022-08-05T07:32:00.944Z,987.6888
2022-08-05T07:33:01.097Z,987.4895
2022-08-05T07:34:01.235Z,987.6091
2022-08-05T07:35:00.400Z,987.6091
2022-08-05T07:36:05.651Z,987.4906
2022-08-05T07:37:00.718Z,987.6683
2022-08-05T07:38:00.896Z,987.6864
2022-08-05T07:39:01.068Z,987.7185
2022-08-05T07:40:25.822Z,987.6663
2022-08-05T07:41:16.889Z,987.716
2022-08-05T07:42:13.302Z,987.6176
2022-08-05T07:43:04.772Z,987.6292
2022-08-05T07:44:00.759Z,987.7025
2022-08-05T07:45:00.899Z,987.9137
2022-08-05T07:46:01.062Z,987.9729
2022-08-05T07:47:01.204Z,987.8711
2022-08-05T07:48:00.369Z,987.9998
2022-08-05T07:49:04.944Z,987.8164
2022-08-05T07:50:00.660Z,988.0506
2022-08-05T07:51:00.796Z,987.7864
2022-08-05T07:52:00.960Z,987.9832
2022-08-05T07:53:01.116Z,987.9822
2022-08-05T07:54:01.786Z,988.0189
2022-08-05T07:55:00.434Z,987.8521
2022-08-05T07:56:06.153Z,987.938
2022-08-05T07:57:14.860Z,987.6431
2022-08-05T07:58:03.132Z,987.6417
2022-08-05T07:59:01.080Z,987.7451
2022-08-05T08:00:01.233Z,987.7892
2022-08-05T08:01:00.483Z,987.7215
2022-08-05T08:02:00.522Z,987.6159
2022-08-05T08:03:14.555Z,987.7416
2022-08-05T08:04:00.861Z,987.6289
2022-08-05T08:05:00.978Z,987.7497
2022-08-05T08:06:01.130Z,987.6385
2022-08-05T08:07:00.282Z,987.8436
2022-08-05T08:08:00.790Z,987.8577
2022-08-05T08:09:00.603Z,987.8704
2022-08-05T08:10:00.733Z,988.0816
2022-08-05T08:11:00.903Z,987.9901
2022-08-05T08:12:09.147Z,987.9654
2022-08-05T08:13:01.695Z,987.8613
2022-08-05T08:14:01.110Z,988.1414
2022-08-05T08:15:02.708Z,988.0802
2022-08-05T08:16:34.354Z,988.0805
2022-08-05T08:17:00.806Z,988.1978
2022-08-05T08:18:02.030Z,988.0983
2022-08-05T08:19:01.133Z,988.0054
2022-08-05T08:21:03.919Z,988.0507
2022-08-05T08:22:00.526Z,988.0663
2022-08-05T08:23:03.084Z,988.0185
2022-08-05T08:24:04.685Z,988.0841
2022-08-05T08:25:02.703Z,988.0626
2022-08-05T08:26:02.735Z,988.0972
2022-08-05T08:27:00.274Z,988.115
2022-08-05T08:28:00.436Z,988.1116
2022-08-05T08:29:22.296Z,988.0653
2022-08-05T08:30:06.063Z,987.9927
2022-08-05T08:31:01.014Z,988.0653
2022-08-05T08:32:01.054Z,987.9938
2022-08-05T08:33:04.444Z,988.0938
2022-08-05T08:34:00.360Z,987.9888
2022-08-05T08:35:00.531Z,987.9948
2022-08-05T08:36:29.855Z,987.9927
2022-08-05T08:37:04.850Z,988.0416
2022-08-05T08:38:00.970Z,987.9878
2022-08-05T08:39:01.657Z,988.1854
2022-08-05T08:40:00.393Z,988.0364
2022-08-05T08:41:00.423Z,988.1079
2022-08-05T08:42:02.480Z,987.995
2022-08-05T08:44:56.502Z,987.9702
2022-08-05T08:45:18.773Z,987.9901
2022-08-05T08:45:20.711Z,988.0638
2022-08-05T08:46:01.188Z,988.0401
2022-08-05T08:47:00.330Z,988.1006
2022-08-05T08:48:06.805Z,988.0557
2022-08-05T08:49:09.554Z,988.0411
2022-08-05T08:50:22.347Z,988.0269
2022-08-05T08:51:22.594Z,988.0319
2022-08-05T08:52:03.525Z,987.9863
2022-08-05T08:53:01.228Z,987.9399
2022-08-05T08:54:00.378Z,988.0703
2022-08-05T08:55:00.563Z,987.9175
2022-08-05T08:56:03.920Z,988.0703
2022-08-05T08:57:00.872Z,987.8784
2022-08-05T08:58:01.018Z,987.9484
2022-08-05T08:59:01.168Z,987.8405
2022-08-05T09:00:00.336Z,987.7926
2022-08-05T09:01:00.535Z,987.7259
2022-08-05T09:02:00.942Z,987.8685
2022-08-05T09:03:00.788Z,987.8121
2022-08-05T09:04:00.926Z,987.6916
2022-08-05T09:05:17.287Z,987.7285
2022-08-05T09:06:08.020Z,987.7898
2022-08-05T09:07:00.421Z,987.6493
2022-08-05T09:08:00.572Z,987.6624
2022-08-05T09:09:01.080Z,987.7028
2022-08-05T09:10:00.882Z,987.7063
2022-08-05T09:11:01.023Z,987.63
2022-08-05T09:12:11.797Z,987.7468
2022-08-05T09:13:04.878Z,987.4783
2022-08-05T09:14:00.978Z,987.6442
2022-08-05T09:15:05.567Z,987.5118
2022-08-05T09:16:00.772Z,987.5238
2022-08-05T09:17:00.931Z,987.4772
2022-08-05T09:18:01.073Z,987.5216
2022-08-05T09:19:01.223Z,987.4783
2022-08-05T09:20:02.641Z,987.4619
2022-08-05T09:21:00.524Z,987.409
2022-08-05T09:22:21.940Z,987.3315
2022-08-05T09:23:05.206Z,987.4841
2022-08-05T09:24:02.535Z,987.436
2022-08-05T09:25:01.124Z,987.314
2022-08-05T09:26:06.464Z,987.3084
2022-08-05T09:27:00.412Z,987.5868
2022-08-05T09:28:04.345Z,987.5139
2022-08-05T09:29:00.698Z,987.4266
2022-08-05T09:30:06.088Z,987.4517
2022-08-05T09:31:01.026Z,987.4111
2022-08-05T09:32:41.741Z,987.3569
2022-08-05T09:33:00.301Z,987.4511
2022-08-05T09:34:00.443Z,987.4496
2022-08-05T09:35:00.594Z,987.6136
2022-08-05T09:36:04.771Z,987.3453
2022-08-05T09:37:00.892Z,987.5676
2022-08-05T09:38:12.481Z,987.4542
2022-08-05T09:39:01.296Z,987.5793
2022-08-05T09:40:00.497Z,987.3752
2022-08-05T09:41:00.525Z,987.587
2022-08-05T09:42:00.639Z,987.6243
2022-08-05T09:43:00.791Z,987.4664
2022-08-05T09:44:00.958Z,987.5646
2022-08-05T09:45:17.718Z,987.481
2022-08-05T09:47:00.397Z,987.5396
2022-08-05T09:48:00.516Z,987.3887
2022-08-05T09:49:07.722Z,987.4822
2022-08-05T09:50:02.723Z,987.4138
2022-08-05T09:51:00.973Z,987.3074
2022-08-05T09:52:01.140Z,987.2633
2022-08-05T09:53:00.262Z,987.2846
2022-08-05T09:54:00.607Z,987.3044
2022-08-05T09:55:00.590Z,987.1216
2022-08-05T09:56:12.655Z,987.2685
2022-08-05T09:57:01.213Z,987.1836
2022-08-05T09:58:01.056Z,987.1537
2022-08-05T09:59:01.190Z,987.166
2022-08-05T10:00:03.654Z,987.306
2022-08-05T10:01:00.495Z,987.4257
2022-08-05T10:02:00.643Z,987.2248
2022-08-05T10:03:00.870Z,987.4617
2022-08-05T10:04:00.950Z,987.4617
2022-08-05T10:05:01.093Z,987.3288
2022-08-05T10:06:04.764Z,987.3146
2022-08-05T10:07:01.480Z,987.423
2022-08-05T10:08:35.254Z,987.4241
2022-08-05T10:09:00.671Z,987.3164
2022-08-05T10:10:13.761Z,987.5465
2022-08-05T10:11:00.968Z,987.4138
2022-08-05T10:12:04.787Z,987.4366
2022-08-05T10:13:00.270Z,987.5046
2022-08-05T10:14:00.420Z,987.4116
2022-08-05T10:15:00.573Z,987.5688
2022-08-05T10:16:00.726Z,987.5427
2022-08-05T10:17:00.890Z,987.4529
2022-08-05T10:18:01.060Z,987.374
2022-08-05T10:19:01.181Z,987.4517
2022-08-05T10:20:03.972Z,987.2939
2022-08-05T10:21:06.133Z,987.2808
2022-08-05T10:22:00.635Z,987.3171
2022-08-05T10:23:00.793Z,987.3182
2022-08-05T10:24:01.854Z,987.2946
2022-08-05T10:25:01.250Z,987.311
2022-08-05T10:26:01.243Z,987.3256
2022-08-05T10:27:01.185Z,987.4066
2022-08-05T10:28:09.478Z,987.5083
2022-08-05T10:29:00.825Z,987.4093
2022-08-05T10:30:07.209Z,987.5252
2022-08-05T10:32:53.303Z,987.4221
2022-08-05T10:33:00.859Z,987.4654
2022-08-05T10:33:02.532Z,987.4725
2022-08-05T10:34:00.462Z,987.4366
2022-08-05T10:35:01.364Z,987.4366
2022-08-05T10:36:00.766Z,987.4725
2022-08-05T10:37:00.911Z,987.3941
2022-08-05T10:38:01.090Z,987.2027
2022-08-05T10:39:01.277Z,987.2135
2022-08-05T10:40:18.236Z,987.2929
2022-08-05T10:41:00.620Z,987.3876
2022-08-05T10:42:01.314Z,987.2689
2022-08-05T10:43:00.875Z,987.1847
2022-08-05T10:44:01.004Z,987.1847
2022-08-05T10:45:01.157Z,987.2663
2022-08-05T10:46:06.296Z,987.0893
2022-08-05T10:47:00.460Z,987.1971
2022-08-05T10:48:29.694Z,987.0342
2022-08-05T10:49:09.810Z,987.1469
2022-08-05T10:50:31.777Z,987.1971
2022-08-05T10:51:01.073Z,987.1345
2022-08-05T10:52:02.642Z,987.0664
2022-08-05T10:53:00.406Z,987.0761
2022-08-05T10:54:01.614Z,987.196
2022-08-05T10:55:00.690Z,987.1432
2022-08-05T10:56:05.041Z,987.3876
2022-08-05T10:57:00.994Z,987.1207
2022-08-05T10:58:01.172Z,987.1589
2022-08-05T10:59:11.458Z,987.2105
2022-08-05T11:00:03.062Z,987.233
2022-08-05T11:01:03.118Z,987.1847
2022-08-05T11:02:04.812Z,987.2098
2022-08-05T11:03:23.438Z,987.1575
2022-08-05T11:04:01.183Z,987.1272
2022-08-05T11:05:01.196Z,987.1933
2022-08-05T11:06:00.344Z,987.0938
2022-08-05T11:07:00.493Z,986.9553
2022-08-05T11:08:01.193Z,987.1133
2022-08-05T11:09:00.821Z,987.2188
2022-08-05T11:10:03.662Z,987.1503
2022-08-05T11:11:05.958Z,986.9482
2022-08-05T11:12:00.263Z,986.8786
2022-08-05T11:13:01.290Z,987.0604
2022-08-05T11:14:00.585Z,987.0922
2022-08-05T11:15:11.635Z,986.988
2022-08-05T11:16:02.105Z,986.8682
2022-08-05T11:17:14.119Z,986.9911
2022-08-05T11:18:03.927Z,986.9095
2022-08-05T11:19:00.358Z,986.8436
2022-08-05T11:20:16.595Z,986.7924
2022-08-05T11:21:00.653Z,986.8976
2022-08-05T11:22:00.805Z,987.1207
2022-08-05T11:23:08.833Z,987.0763
2022-08-05T11:24:04.297Z,987.0928
2022-08-05T11:26:02.930Z,986.9551
2022-08-05T11:26:04.517Z,986.9289
2022-08-05T11:27:00.556Z,986.8786
2022-08-05T11:28:01.031Z,986.9058
2022-08-05T11:29:11.798Z,986.9874
2022-08-05T11:30:01.038Z,986.9106
2022-08-05T11:31:01.175Z,986.8555
2022-08-05T11:32:01.009Z,986.8993
2022-08-05T11:33:00.492Z,986.867
2022-08-05T11:34:00.662Z,986.9423
2022-08-05T11:35:00.804Z,986.9738
2022-08-05T11:36:07.550Z,986.9783
2022-08-05T11:37:01.092Z,987.0056
2022-08-05T11:38:29.935Z,986.8676
2022-08-05T11:39:00.569Z,986.8436
2022-08-05T11:40:03.867Z,986.8093
2022-08-05T11:41:14.180Z,986.8578
2022-08-05T11:42:04.399Z,986.8572
2022-08-05T11:43:01.005Z,986.9293
2022-08-05T11:44:05.903Z,986.8676
2022-08-05T11:45:00.319Z,986.9243
2022-08-05T11:46:15.129Z,987.1133
2022-08-05T11:47:11.149Z,987.0186
2022-08-05T11:48:00.793Z,987.0292
2022-08-05T11:49:00.946Z,986.978
2022-08-05T11:50:01.732Z,987.095